createdAt,value
2018-07-20T00:02:35.222Z,18.10
2018-07-20T00:06:38.762Z,17.80
2018-07-20T00:10:42.339Z,17.80
2018-07-20T00:14:45.880Z,18.20
2018-07-20T00:18:49.492Z,18.60
2018-07-20T00:22:53.050Z,18.70
2018-07-20T00:26:56.666Z,18.00
2018-07-20T00:31:00.247Z,17.60
2018-07-20T00:35:03.854Z,17.90
2018-07-20T00:39:09.478Z,17.70
2018-07-20T00:43:13.038Z,17.70
2018-07-20T00:47:16.666Z,17.70
2018-07-20T00:51:20.274Z,17.60
2018-07-20T00:55:23.908Z,17.60
2018-07-20T00:59:27.450Z,17.70
2018-07-20T01:03:31.020Z,18.40
2018-07-20T01:07:34.554Z,17.60
2018-07-20T01:11:38.322Z,17.20
2018-07-20T01:15:41.878Z,17.00
2018-07-20T01:19:45.441Z,16.80
2018-07-20T01:23:49.990Z,16.80
2018-07-20T01:27:53.542Z,17.10
2018-07-20T01:31:57.020Z,16.90
2018-07-20T01:36:00.525Z,17.00
2018-07-20T01:40:04.558Z,16.70
2018-07-20T01:44:08.525Z,16.80
2018-07-20T01:52:18.089Z,17.50
2018-07-20T01:56:21.582Z,17.70
2018-07-20T02:00:25.122Z,17.20
2018-07-20T02:04:28.594Z,16.80
2018-07-20T02:08:32.145Z,16.50
2018-07-20T02:12:35.820Z,16.30
2018-07-20T02:16:39.401Z,16.10
2018-07-20T02:20:42.939Z,16.00
2018-07-20T02:24:47.595Z,15.90
2018-07-20T02:28:51.141Z,16.30
2018-07-20T02:32:54.797Z,16.10
2018-07-20T02:41:02.783Z,17.20
2018-07-20T02:45:06.496Z,17.20
2018-07-20T02:49:10.110Z,16.70
2018-07-20T02:53:13.698Z,16.10
2018-07-20T02:57:17.826Z,15.80
2018-07-20T03:01:21.359Z,15.70
2018-07-20T03:05:24.949Z,15.70
2018-07-20T03:09:28.531Z,15.70
2018-07-20T03:13:32.170Z,15.70
2018-07-20T03:17:35.706Z,15.70
2018-07-20T03:21:39.267Z,15.80
2018-07-20T03:25:42.835Z,15.80
2018-07-20T03:29:46.652Z,15.80
2018-07-20T03:33:50.154Z,15.70
2018-07-20T03:37:53.794Z,15.60
2018-07-20T03:41:57.302Z,15.40
2018-07-20T03:46:00.914Z,15.40
2018-07-20T03:50:04.574Z,15.40
2018-07-20T03:54:08.123Z,15.70
2018-07-20T03:58:11.646Z,15.80
2018-07-20T04:02:15.274Z,16.10
2018-07-20T04:06:18.798Z,16.90
2018-07-20T04:10:22.524Z,16.50
2018-07-20T04:14:26.178Z,16.00
2018-07-20T04:18:31.814Z,15.70
2018-07-20T04:22:37.345Z,15.90
2018-07-20T04:26:40.990Z,15.80
2018-07-20T04:30:48.077Z,15.80
2018-07-20T04:34:51.590Z,15.70
2018-07-20T04:38:55.079Z,15.80
2018-07-20T04:43:04.155Z,15.70
2018-07-20T04:47:07.667Z,15.70
2018-07-20T04:51:11.489Z,15.70
2018-07-20T04:55:15.022Z,15.90
2018-07-20T04:59:18.740Z,16.00
2018-07-20T05:03:22.279Z,15.90
2018-07-20T05:07:25.887Z,16.00
2018-07-20T05:11:29.435Z,16.20
2018-07-20T05:15:33.175Z,16.20
2018-07-20T05:19:36.966Z,16.40
2018-07-20T05:23:40.602Z,16.60
2018-07-20T05:27:44.138Z,16.60
2018-07-20T05:31:47.793Z,16.70
2018-07-20T05:35:51.367Z,17.00
2018-07-20T05:39:54.939Z,17.20
2018-07-20T05:43:58.521Z,17.40
2018-07-20T05:48:03.200Z,17.40
2018-07-20T05:52:06.763Z,17.50
2018-07-20T05:56:10.404Z,17.60
2018-07-20T06:00:13.942Z,17.90
2018-07-20T06:04:17.490Z,18.30
2018-07-20T06:08:22.027Z,18.80
2018-07-20T06:12:25.681Z,19.10
2018-07-20T06:16:29.290Z,18.90
2018-07-20T06:20:32.958Z,18.90
2018-07-20T06:24:36.519Z,19.50
2018-07-20T06:28:40.155Z,20.10
2018-07-20T06:32:46.799Z,20.20
2018-07-20T06:36:50.413Z,20.60
2018-07-20T06:40:53.943Z,20.90
2018-07-20T06:44:57.838Z,20.90
2018-07-20T06:49:01.330Z,21.90
2018-07-20T06:53:04.951Z,23.20
2018-07-20T06:57:08.542Z,23.60
2018-07-20T07:01:12.147Z,23.50
2018-07-20T07:05:15.685Z,23.90
2018-07-20T07:09:19.352Z,24.70
2018-07-20T07:13:22.922Z,25.60
2018-07-20T07:17:26.635Z,26.30
2018-07-20T07:21:32.276Z,25.20
2018-07-20T07:29:41.506Z,27.10
2018-07-20T07:33:45.062Z,28.00
2018-07-20T07:37:49.672Z,27.70
2018-07-20T07:41:55.317Z,26.90
2018-07-20T07:45:58.834Z,27.40
2018-07-20T07:50:03.631Z,27.80
2018-07-20T07:54:07.240Z,27.60
2018-07-20T07:58:10.887Z,28.30
2018-07-20T08:02:21.581Z,28.60
2018-07-20T08:06:25.293Z,28.60
2018-07-20T08:10:28.911Z,28.70
2018-07-20T08:14:33.598Z,29.40
2018-07-20T08:18:37.492Z,29.60
2018-07-20T08:22:41.603Z,28.70
2018-07-20T08:26:45.183Z,30.10
2018-07-20T08:30:49.138Z,30.80
2018-07-20T08:34:56.448Z,30.30
2018-07-20T08:39:00.136Z,30.00
2018-07-20T08:43:04.794Z,29.90
2018-07-20T08:47:12.686Z,30.30
2018-07-20T08:51:16.334Z,30.50
2018-07-20T08:55:21.030Z,31.20
2018-07-20T08:59:24.586Z,30.70
2018-07-20T09:03:28.221Z,31.10
2018-07-20T09:07:32.340Z,31.60
2018-07-20T09:11:35.946Z,31.70
2018-07-20T09:19:42.805Z,31.10
2018-07-20T09:23:47.257Z,30.90
2018-07-20T09:27:50.897Z,31.70
2018-07-20T09:31:54.743Z,31.80
2018-07-20T09:35:58.466Z,31.80
2018-07-20T09:40:05.263Z,32.00
2018-07-20T09:44:09.623Z,32.50
2018-07-20T09:48:13.154Z,32.80
2018-07-20T09:52:16.776Z,32.80
2018-07-20T09:56:20.395Z,32.70
2018-07-20T10:00:29.317Z,33.20
2018-07-20T10:04:32.859Z,33.20
2018-07-20T10:08:39.045Z,33.00
2018-07-20T10:12:42.602Z,32.50
2018-07-20T10:16:46.164Z,31.80
2018-07-20T10:20:49.755Z,30.90
2018-07-20T10:24:54.397Z,29.80
2018-07-20T10:33:13.179Z,28.70
2018-07-20T10:37:18.466Z,29.00
2018-07-20T10:41:22.001Z,29.30
2018-07-20T10:45:25.875Z,29.20
2018-07-20T10:49:29.630Z,29.90
2018-07-20T10:53:33.179Z,30.80
2018-07-20T10:57:36.886Z,30.30
2018-07-20T11:01:40.554Z,30.20
2018-07-20T11:05:44.210Z,30.40
2018-07-20T11:09:47.758Z,31.30
2018-07-20T11:13:51.420Z,31.20
2018-07-20T11:17:54.958Z,31.40
2018-07-20T11:21:58.655Z,31.30
2018-07-20T11:26:03.205Z,31.20
2018-07-20T11:30:07.895Z,31.20
2018-07-20T11:34:11.373Z,30.90
2018-07-20T11:38:14.965Z,31.00
2018-07-20T11:42:18.601Z,31.20
2018-07-20T11:46:23.130Z,31.50
2018-07-20T11:50:26.637Z,31.70
2018-07-20T11:54:30.157Z,30.00
2018-07-20T11:58:33.654Z,29.00
2018-07-20T12:02:37.186Z,29.60
2018-07-20T12:06:46.173Z,30.10
2018-07-20T12:10:50.053Z,30.60
2018-07-20T12:14:53.817Z,31.00
2018-07-20T12:18:57.480Z,30.90
2018-07-20T12:23:01.072Z,30.70
2018-07-20T12:27:04.629Z,31.00
2018-07-20T12:31:08.291Z,30.40
2018-07-20T12:35:13.942Z,29.70
2018-07-20T12:39:17.453Z,28.60
2018-07-20T12:43:21.685Z,28.20
2018-07-20T12:47:26.374Z,29.00
2018-07-20T12:51:29.950Z,29.30
2018-07-20T12:55:33.718Z,29.30
2018-07-20T12:59:37.389Z,29.40
2018-07-20T13:03:42.579Z,29.60
2018-07-20T13:07:46.573Z,29.80
2018-07-20T13:11:54.502Z,30.30
2018-07-20T13:15:58.099Z,30.40
2018-07-20T13:20:08.393Z,30.30
2018-07-20T13:24:16.107Z,30.20
2018-07-20T13:28:19.678Z,29.10
2018-07-20T13:32:28.418Z,29.30
2018-07-20T13:36:35.730Z,29.40
2018-07-20T13:40:41.402Z,29.50
2018-07-20T13:44:55.837Z,29.70
2018-07-20T13:48:59.391Z,29.70
2018-07-20T13:53:03.109Z,29.60
2018-07-20T13:57:06.699Z,29.50
2018-07-20T14:01:10.230Z,29.30
2018-07-20T14:09:16.997Z,28.70
2018-07-20T14:13:20.550Z,28.30
2018-07-20T14:17:32.484Z,28.10
2018-07-20T14:21:36.090Z,27.90
2018-07-20T14:25:39.820Z,28.70
2018-07-20T14:29:43.386Z,28.50
2018-07-20T14:33:52.506Z,28.30
2018-07-20T14:37:56.098Z,28.60
2018-07-20T14:41:59.643Z,28.80
2018-07-20T14:46:03.447Z,29.10
2018-07-20T14:54:10.763Z,29.80
2018-07-20T14:58:14.315Z,29.90
2018-07-20T15:02:17.912Z,29.90
2018-07-20T15:06:21.446Z,29.60
2018-07-20T15:14:28.589Z,29.30
2018-07-20T15:18:32.109Z,28.50
2018-07-20T15:22:38.979Z,28.70
2018-07-20T15:26:42.581Z,28.90
2018-07-20T15:30:46.233Z,28.90
2018-07-20T15:34:49.778Z,28.90
2018-07-20T15:38:53.302Z,29.00
2018-07-20T15:42:56.939Z,29.00
2018-07-20T15:47:00.776Z,29.10
2018-07-20T15:51:04.088Z,29.20
2018-07-20T15:55:07.642Z,29.40
2018-07-20T15:59:11.258Z,29.50
2018-07-20T16:03:14.785Z,29.40
2018-07-20T16:07:18.407Z,29.20
2018-07-20T16:11:21.933Z,29.00
2018-07-20T16:15:25.499Z,28.80
2018-07-20T16:19:29.102Z,29.00
2018-07-20T16:23:32.691Z,29.00
2018-07-20T16:27:36.295Z,29.00
2018-07-20T16:31:39.878Z,28.80
2018-07-20T16:35:43.538Z,28.60
2018-07-20T16:39:46.989Z,28.50
2018-07-20T16:47:53.731Z,28.50
2018-07-20T16:51:57.239Z,28.50
2018-07-20T16:56:04.696Z,28.40
2018-07-20T17:00:08.542Z,28.40
2018-07-20T17:04:12.089Z,28.20
2018-07-20T17:08:17.798Z,28.10
2018-07-20T17:12:21.367Z,28.10
2018-07-20T17:16:24.965Z,28.00
2018-07-20T17:20:28.563Z,27.90
2018-07-20T17:24:33.090Z,27.80
2018-07-20T17:28:36.782Z,27.80
2018-07-20T17:32:40.394Z,27.70
2018-07-20T17:36:44.054Z,27.50
2018-07-20T17:40:47.702Z,27.40
2018-07-20T17:44:51.539Z,27.40
2018-07-20T17:48:59.077Z,27.20
2018-07-20T17:53:03.755Z,27.10
2018-07-20T17:57:07.310Z,26.90
2018-07-20T18:01:11.293Z,26.70
2018-07-20T18:05:14.822Z,26.60
2018-07-20T18:13:21.598Z,26.50
2018-07-20T18:17:25.254Z,26.30
2018-07-20T18:21:28.818Z,26.20
2018-07-20T18:25:32.421Z,25.70
2018-07-20T18:29:36.182Z,25.30
2018-07-20T18:33:41.875Z,25.10
2018-07-20T18:37:45.364Z,25.10
2018-07-20T18:41:48.954Z,25.30
2018-07-20T18:45:53.498Z,25.40
2018-07-20T18:49:57.026Z,25.40
2018-07-20T18:54:00.531Z,25.50
2018-07-20T18:58:06.314Z,25.50
2018-07-20T19:02:10.610Z,25.60
2018-07-20T19:06:14.226Z,25.40
2018-07-20T19:10:23.722Z,25.10
2018-07-20T19:14:28.381Z,25.00
2018-07-20T19:18:31.866Z,24.90
2018-07-20T19:22:41.252Z,24.90
2018-07-20T19:26:44.773Z,24.80
2018-07-20T19:30:52.237Z,24.70
2018-07-20T19:34:57.794Z,24.70
2018-07-20T19:39:01.323Z,24.60
2018-07-20T19:43:08.855Z,24.60
2018-07-20T19:47:30.582Z,24.70
2018-07-20T19:51:35.193Z,24.60
2018-07-20T19:55:43.487Z,24.40
2018-07-20T19:59:47.026Z,24.30
2018-07-20T20:03:52.306Z,24.30
2018-07-20T20:07:55.926Z,24.10
2018-07-20T20:12:01.602Z,24.00
2018-07-20T20:16:09.470Z,24.00
2018-07-20T20:20:14.402Z,23.90
2018-07-20T20:24:19.003Z,23.80
2018-07-20T20:28:28.262Z,23.70
2018-07-20T20:32:31.949Z,23.70
2018-07-20T20:36:36.722Z,23.60
2018-07-20T20:40:40.287Z,23.60
2018-07-20T20:44:43.958Z,23.70
2018-07-20T20:48:51.453Z,23.60
2018-07-20T20:53:04.892Z,23.60
2018-07-20T20:57:09.765Z,23.50
2018-07-20T21:01:13.326Z,23.40
2018-07-20T21:05:22.958Z,23.40
2018-07-20T21:09:30.819Z,23.50
2018-07-20T21:13:34.344Z,23.20
2018-07-20T21:17:38.949Z,23.10
2018-07-20T21:21:43.253Z,23.00
2018-07-20T21:25:48.914Z,23.00
2018-07-20T21:29:56.146Z,22.90
2018-07-20T21:34:00.349Z,22.90
2018-07-20T21:38:04.962Z,22.80
2018-07-20T21:42:08.542Z,22.80
2018-07-20T21:46:12.109Z,22.90
2018-07-20T21:50:36.305Z,23.00
2018-07-20T21:55:00.730Z,22.90
2018-07-20T21:59:10.588Z,22.80
2018-07-20T22:03:15.363Z,22.70
2018-07-20T22:07:20.006Z,22.60
2018-07-20T22:11:23.753Z,22.70
2018-07-20T22:15:27.654Z,22.80
2018-07-20T22:19:31.238Z,22.70
2018-07-20T22:23:38.590Z,22.80
2018-07-20T22:27:45.978Z,23.00
2018-07-20T22:31:49.561Z,23.00
2018-07-20T22:35:53.146Z,23.00
2018-07-20T22:39:58.766Z,22.90
2018-07-20T22:44:23.069Z,22.60
2018-07-20T22:48:26.706Z,22.60
2018-07-20T22:52:35.941Z,22.70
2018-07-20T22:56:39.605Z,22.80
2018-07-20T23:00:48.422Z,22.70
2018-07-20T23:04:52.054Z,22.40
2018-07-20T23:08:56.063Z,22.30
2018-07-20T23:17:13.176Z,22.10
2018-07-20T23:21:17.913Z,22.00
2018-07-20T23:25:21.561Z,21.80
2018-07-20T23:29:25.154Z,21.80
2018-07-20T23:33:28.790Z,21.70
2018-07-20T23:37:32.471Z,21.50
2018-07-20T23:41:36.232Z,21.50
2018-07-20T23:45:39.975Z,21.60
2018-07-20T23:49:53.873Z,21.60
2018-07-20T23:53:57.625Z,21.70
2018-07-20T23:58:01.211Z,21.60
